sensor_id;sensor_type;location;lat;lon;timestamp;P1;durP1;ratioP1;P2;durP2;ratioP2
42864;SDS011;28511;42.680;23.252;2022-09-09T00:00:21;9.98;;;5.07;;
42864;SDS011;28511;42.680;23.252;2022-09-09T00:02:49;9.15;;;5.05;;
42864;SDS011;28511;42.680;23.252;2022-09-09T00:05:23;7.72;;;4.72;;
42864;SDS011;28511;42.680;23.252;2022-09-09T00:07:52;8.88;;;5.30;;
42864;SDS011;28511;42.680;23.252;2022-09-09T00:15:28;8.05;;;4.50;;
42864;SDS011;28511;42.680;23.252;2022-09-09T00:20:43;11.55;;;4.72;;
42864;SDS011;28511;42.680;23.252;2022-09-09T00:23:15;11.07;;;5.38;;
42864;SDS011;28511;42.680;23.252;2022-09-09T00:25:49;13.65;;;6.25;;
42864;SDS011;28511;42.680;23.252;2022-09-09T00:28:19;9.70;;;5.35;;
42864;SDS011;28511;42.680;23.252;2022-09-09T00:30:45;8.85;;;4.43;;
42864;SDS011;28511;42.680;23.252;2022-09-09T00:33:14;9.50;;;5.43;;
42864;SDS011;28511;42.680;23.252;2022-09-09T00:35:43;10.60;;;5.40;;
42864;SDS011;28511;42.680;23.252;2022-09-09T00:38:19;7.55;;;4.70;;
42864;SDS011;28511;42.680;23.252;2022-09-09T00:48:16;10.82;;;5.05;;
42864;SDS011;28511;42.680;23.252;2022-09-09T00:50:57;10.05;;;4.93;;
42864;SDS011;28511;42.680;23.252;2022-09-09T00:53:31;8.18;;;4.95;;
42864;SDS011;28511;42.680;23.252;2022-09-09T00:58:30;11.43;;;6.13;;
42864;SDS011;28511;42.680;23.252;2022-09-09T01:01:00;11.93;;;5.13;;
42864;SDS011;28511;42.680;23.252;2022-09-09T01:03:35;8.82;;;4.43;;
42864;SDS011;28511;42.680;23.252;2022-09-09T01:06:15;9.63;;;4.93;;
42864;SDS011;28511;42.680;23.252;2022-09-09T01:11:07;9.70;;;5.28;;
42864;SDS011;28511;42.680;23.252;2022-09-09T01:13:35;10.77;;;5.63;;
42864;SDS011;28511;42.680;23.252;2022-09-09T01:16:03;10.25;;;6.18;;
42864;SDS011;28511;42.680;23.252;2022-09-09T01:18:29;10.60;;;6.03;;
42864;SDS011;28511;42.680;23.252;2022-09-09T01:28:25;9.73;;;5.57;;
42864;SDS011;28511;42.680;23.252;2022-09-09T01:30:51;9.98;;;4.47;;
42864;SDS011;28511;42.680;23.252;2022-09-09T01:33:17;8.43;;;5.20;;
42864;SDS011;28511;42.680;23.252;2022-09-09T01:38:20;8.60;;;4.90;;
42864;SDS011;28511;42.680;23.252;2022-09-09T01:40:46;9.95;;;5.68;;
42864;SDS011;28511;42.680;23.252;2022-09-09T01:43:11;10.88;;;5.57;;
42864;SDS011;28511;42.680;23.252;2022-09-09T01:45:38;10.75;;;5.50;;
42864;SDS011;28511;42.680;23.252;2022-09-09T01:48:04;12.68;;;5.07;;
42864;SDS011;28511;42.680;23.252;2022-09-09T01:50:29;10.23;;;5.78;;
42864;SDS011;28511;42.680;23.252;2022-09-09T01:52:58;13.18;;;6.80;;
42864;SDS011;28511;42.680;23.252;2022-09-09T01:55:36;9.32;;;5.63;;
42864;SDS011;28511;42.680;23.252;2022-09-09T02:00:27;10.47;;;5.27;;
42864;SDS011;28511;42.680;23.252;2022-09-09T02:03:08;10.80;;;6.25;;
42864;SDS011;28511;42.680;23.252;2022-09-09T02:05:38;9.60;;;5.68;;
42864;SDS011;28511;42.680;23.252;2022-09-09T02:08:08;10.43;;;5.75;;
42864;SDS011;28511;42.680;23.252;2022-09-09T02:10:45;13.38;;;6.00;;
42864;SDS011;28511;42.680;23.252;2022-09-09T02:13:12;9.10;;;5.45;;
42864;SDS011;28511;42.680;23.252;2022-09-09T02:18:26;10.73;;;6.05;;
42864;SDS011;28511;42.680;23.252;2022-09-09T02:20:52;9.30;;;5.55;;
42864;SDS011;28511;42.680;23.252;2022-09-09T02:23:18;7.85;;;5.38;;
42864;SDS011;28511;42.680;23.252;2022-09-09T02:25:45;12.45;;;5.88;;
42864;SDS011;28511;42.680;23.252;2022-09-09T02:28:11;14.00;;;6.43;;
42864;SDS011;28511;42.680;23.252;2022-09-09T02:30:39;11.25;;;6.35;;
42864;SDS011;28511;42.680;23.252;2022-09-09T02:33:05;12.80;;;5.93;;
42864;SDS011;28511;42.680;23.252;2022-09-09T02:35:32;12.18;;;4.80;;
42864;SDS011;28511;42.680;23.252;2022-09-09T02:37:59;10.50;;;5.72;;
42864;SDS011;28511;42.680;23.252;2022-09-09T02:40:26;13.38;;;6.60;;
42864;SDS011;28511;42.680;23.252;2022-09-09T02:42:51;11.25;;;6.72;;
42864;SDS011;28511;42.680;23.252;2022-09-09T02:45:19;10.93;;;5.82;;
42864;SDS011;28511;42.680;23.252;2022-09-09T02:57:51;10.43;;;6.03;;
42864;SDS011;28511;42.680;23.252;2022-09-09T03:00:22;11.38;;;6.47;;
42864;SDS011;28511;42.680;23.252;2022-09-09T03:02:47;9.50;;;5.93;;
42864;SDS011;28511;42.680;23.252;2022-09-09T03:05:12;12.30;;;6.43;;
42864;SDS011;28511;42.680;23.252;2022-09-09T03:07:38;11.48;;;6.75;;
42864;SDS011;28511;42.680;23.252;2022-09-09T03:10:05;11.13;;;5.97;;
42864;SDS011;28511;42.680;23.252;2022-09-09T03:12:30;9.93;;;5.97;;
42864;SDS011;28511;42.680;23.252;2022-09-09T03:14:56;11.70;;;6.22;;
42864;SDS011;28511;42.680;23.252;2022-09-09T03:17:21;18.47;;;6.57;;
42864;SDS011;28511;42.680;23.252;2022-09-09T03:19:46;12.85;;;6.28;;
42864;SDS011;28511;42.680;23.252;2022-09-09T03:22:14;12.80;;;5.90;;
42864;SDS011;28511;42.680;23.252;2022-09-09T03:24:39;12.90;;;6.85;;
42864;SDS011;28511;42.680;23.252;2022-09-09T03:27:05;10.35;;;5.90;;
42864;SDS011;28511;42.680;23.252;2022-09-09T03:29:31;13.50;;;6.38;;
42864;SDS011;28511;42.680;23.252;2022-09-09T03:31:56;11.65;;;6.57;;
42864;SDS011;28511;42.680;23.252;2022-09-09T03:34:21;11.67;;;6.90;;
42864;SDS011;28511;42.680;23.252;2022-09-09T03:36:47;9.27;;;6.20;;
42864;SDS011;28511;42.680;23.252;2022-09-09T03:39:13;11.70;;;5.88;;
42864;SDS011;28511;42.680;23.252;2022-09-09T03:41:39;15.07;;;6.57;;
42864;SDS011;28511;42.680;23.252;2022-09-09T03:44:04;16.65;;;7.40;;
42864;SDS011;28511;42.680;23.252;2022-09-09T03:46:29;11.70;;;6.72;;
42864;SDS011;28511;42.680;23.252;2022-09-09T03:48:56;10.07;;;6.00;;
42864;SDS011;28511;42.680;23.252;2022-09-09T03:51:22;12.18;;;6.60;;
42864;SDS011;28511;42.680;23.252;2022-09-09T03:53:47;10.48;;;5.90;;
42864;SDS011;28511;42.680;23.252;2022-09-09T03:56:13;11.35;;;6.72;;
42864;SDS011;28511;42.680;23.252;2022-09-09T03:58:38;14.25;;;6.97;;
42864;SDS011;28511;42.680;23.252;2022-09-09T04:01:04;11.05;;;6.22;;
42864;SDS011;28511;42.680;23.252;2022-09-09T04:03:30;11.77;;;5.97;;
42864;SDS011;28511;42.680;23.252;2022-09-09T04:05:56;13.48;;;6.90;;
42864;SDS011;28511;42.680;23.252;2022-09-09T04:08:22;13.40;;;6.05;;
42864;SDS011;28511;42.680;23.252;2022-09-09T04:10:50;14.25;;;6.45;;
42864;SDS011;28511;42.680;23.252;2022-09-09T04:13:16;12.38;;;5.72;;
42864;SDS011;28511;42.680;23.252;2022-09-09T04:15:42;12.98;;;6.38;;
42864;SDS011;28511;42.680;23.252;2022-09-09T04:18:08;10.00;;;5.80;;
42864;SDS011;28511;42.680;23.252;2022-09-09T04:20:34;18.52;;;6.85;;
42864;SDS011;28511;42.680;23.252;2022-09-09T04:23:00;14.80;;;6.60;;
42864;SDS011;28511;42.680;23.252;2022-09-09T04:25:25;11.63;;;6.05;;
42864;SDS011;28511;42.680;23.252;2022-09-09T04:27:57;15.38;;;7.53;;
42864;SDS011;28511;42.680;23.252;2022-09-09T04:30:23;11.98;;;6.05;;
42864;SDS011;28511;42.680;23.252;2022-09-09T04:32:49;11.30;;;5.47;;
42864;SDS011;28511;42.680;23.252;2022-09-09T04:35:14;9.75;;;6.45;;
42864;SDS011;28511;42.680;23.252;2022-09-09T04:37:40;12.00;;;6.65;;
42864;SDS011;28511;42.680;23.252;2022-09-09T04:40:06;16.13;;;6.90;;
42864;SDS011;28511;42.680;23.252;2022-09-09T04:42:35;10.93;;;5.68;;
42864;SDS011;28511;42.680;23.252;2022-09-09T04:45:00;14.20;;;6.75;;
42864;SDS011;28511;42.680;23.252;2022-09-09T04:47:26;15.82;;;6.43;;
42864;SDS011;28511;42.680;23.252;2022-09-09T04:49:51;12.70;;;6.32;;
42864;SDS011;28511;42.680;23.252;2022-09-09T04:52:19;14.02;;;6.70;;
42864;SDS011;28511;42.680;23.252;2022-09-09T04:54:44;21.63;;;7.00;;
42864;SDS011;28511;42.680;23.252;2022-09-09T04:57:10;12.23;;;5.75;;
42864;SDS011;28511;42.680;23.252;2022-09-09T04:59:36;12.00;;;6.38;;
42864;SDS011;28511;42.680;23.252;2022-09-09T05:02:01;11.95;;;5.85;;
42864;SDS011;28511;42.680;23.252;2022-09-09T05:04:27;12.23;;;6.75;;
42864;SDS011;28511;42.680;23.252;2022-09-09T05:06:53;14.10;;;5.55;;
42864;SDS011;28511;42.680;23.252;2022-09-09T05:09:19;9.82;;;6.13;;
42864;SDS011;28511;42.680;23.252;2022-09-09T05:11:45;13.60;;;6.63;;
42864;SDS011;28511;42.680;23.252;2022-09-09T05:14:11;11.75;;;6.38;;
42864;SDS011;28511;42.680;23.252;2022-09-09T05:16:37;12.82;;;7.43;;
42864;SDS011;28511;42.680;23.252;2022-09-09T05:19:02;17.60;;;6.60;;
42864;SDS011;28511;42.680;23.252;2022-09-09T05:21:28;13.52;;;7.40;;
42864;SDS011;28511;42.680;23.252;2022-09-09T05:23:55;12.57;;;6.63;;
42864;SDS011;28511;42.680;23.252;2022-09-09T05:26:21;13.30;;;6.85;;
42864;SDS011;28511;42.680;23.252;2022-09-09T05:28:47;19.30;;;7.82;;
42864;SDS011;28511;42.680;23.252;2022-09-09T05:31:13;11.07;;;6.45;;
42864;SDS011;28511;42.680;23.252;2022-09-09T05:33:40;17.95;;;6.75;;
42864;SDS011;28511;42.680;23.252;2022-09-09T05:36:08;9.98;;;6.25;;
42864;SDS011;28511;42.680;23.252;2022-09-09T05:38:35;12.68;;;6.75;;
42864;SDS011;28511;42.680;23.252;2022-09-09T05:41:01;12.88;;;6.80;;
42864;SDS011;28511;42.680;23.252;2022-09-09T05:43:27;14.85;;;6.45;;
42864;SDS011;28511;42.680;23.252;2022-09-09T05:46:04;12.18;;;7.07;;
42864;SDS011;28511;42.680;23.252;2022-09-09T05:48:36;12.98;;;6.32;;
42864;SDS011;28511;42.680;23.252;2022-09-09T05:51:02;11.70;;;6.50;;
42864;SDS011;28511;42.680;23.252;2022-09-09T05:53:28;13.90;;;6.63;;
42864;SDS011;28511;42.680;23.252;2022-09-09T05:56:04;12.15;;;6.68;;
42864;SDS011;28511;42.680;23.252;2022-09-09T05:58:32;9.25;;;6.47;;
42864;SDS011;28511;42.680;23.252;2022-09-09T06:01:07;10.07;;;5.65;;
42864;SDS011;28511;42.680;23.252;2022-09-09T06:03:34;11.05;;;7.05;;
42864;SDS011;28511;42.680;23.252;2022-09-09T06:06:00;10.73;;;6.55;;
42864;SDS011;28511;42.680;23.252;2022-09-09T06:08:26;10.38;;;6.15;;
42864;SDS011;28511;42.680;23.252;2022-09-09T06:10:51;9.32;;;5.82;;
42864;SDS011;28511;42.680;23.252;2022-09-09T06:13:17;9.43;;;5.88;;
42864;SDS011;28511;42.680;23.252;2022-09-09T06:15:49;10.60;;;6.13;;
42864;SDS011;28511;42.680;23.252;2022-09-09T06:18:15;11.00;;;5.88;;
42864;SDS011;28511;42.680;23.252;2022-09-09T06:20:42;11.02;;;5.22;;
42864;SDS011;28511;42.680;23.252;2022-09-09T06:23:08;14.03;;;6.20;;
42864;SDS011;28511;42.680;23.252;2022-09-09T06:25:33;8.93;;;5.87;;
42864;SDS011;28511;42.680;23.252;2022-09-09T06:27:59;12.85;;;5.72;;
42864;SDS011;28511;42.680;23.252;2022-09-09T06:30:24;8.68;;;5.30;;
42864;SDS011;28511;42.680;23.252;2022-09-09T06:32:54;9.07;;;6.15;;
42864;SDS011;28511;42.680;23.252;2022-09-09T06:35:20;9.88;;;6.88;;
42864;SDS011;28511;42.680;23.252;2022-09-09T06:37:45;13.17;;;6.27;;
42864;SDS011;28511;42.680;23.252;2022-09-09T06:40:13;8.73;;;6.33;;
42864;SDS011;28511;42.680;23.252;2022-09-09T06:42:39;10.83;;;5.53;;
42864;SDS011;28511;42.680;23.252;2022-09-09T06:45:04;10.23;;;6.40;;
42864;SDS011;28511;42.680;23.252;2022-09-09T06:47:29;9.15;;;5.95;;
42864;SDS011;28511;42.680;23.252;2022-09-09T06:49:55;10.07;;;5.67;;
42864;SDS011;28511;42.680;23.252;2022-09-09T06:52:21;8.00;;;5.75;;
42864;SDS011;28511;42.680;23.252;2022-09-09T06:54:46;10.23;;;5.55;;
42864;SDS011;28511;42.680;23.252;2022-09-09T06:57:11;9.60;;;6.43;;
42864;SDS011;28511;42.680;23.252;2022-09-09T06:59:37;10.13;;;6.00;;
42864;SDS011;28511;42.680;23.252;2022-09-09T07:02:03;7.85;;;5.63;;
42864;SDS011;28511;42.680;23.252;2022-09-09T07:04:28;9.18;;;5.45;;
42864;SDS011;28511;42.680;23.252;2022-09-09T07:06:53;9.83;;;6.27;;
42864;SDS011;28511;42.680;23.252;2022-09-09T07:09:18;9.80;;;6.27;;
42864;SDS011;28511;42.680;23.252;2022-09-09T07:11:45;12.27;;;5.57;;
42864;SDS011;28511;42.680;23.252;2022-09-09T07:14:10;10.75;;;6.22;;
42864;SDS011;28511;42.680;23.252;2022-09-09T07:16:39;11.45;;;6.80;;
42864;SDS011;28511;42.680;23.252;2022-09-09T07:19:05;9.70;;;5.88;;
42864;SDS011;28511;42.680;23.252;2022-09-09T07:21:32;11.20;;;5.73;;
42864;SDS011;28511;42.680;23.252;2022-09-09T07:23:57;14.35;;;5.75;;
42864;SDS011;28511;42.680;23.252;2022-09-09T07:26:23;8.55;;;5.78;;
42864;SDS011;28511;42.680;23.252;2022-09-09T07:28:49;8.85;;;5.50;;
42864;SDS011;28511;42.680;23.252;2022-09-09T07:31:15;11.32;;;6.10;;
42864;SDS011;28511;42.680;23.252;2022-09-09T07:33:42;13.73;;;6.53;;
42864;SDS011;28511;42.680;23.252;2022-09-09T07:36:15;10.23;;;6.93;;
42864;SDS011;28511;42.680;23.252;2022-09-09T07:38:45;14.95;;;6.22;;
42864;SDS011;28511;42.680;23.252;2022-09-09T07:41:15;9.00;;;5.65;;
42864;SDS011;28511;42.680;23.252;2022-09-09T07:43:44;11.57;;;5.53;;
42864;SDS011;28511;42.680;23.252;2022-09-09T07:46:10;9.70;;;6.07;;
42864;SDS011;28511;42.680;23.252;2022-09-09T07:48:37;8.02;;;5.57;;
42864;SDS011;28511;42.680;23.252;2022-09-09T07:51:07;9.35;;;5.53;;
42864;SDS011;28511;42.680;23.252;2022-09-09T07:53:33;8.82;;;5.53;;
42864;SDS011;28511;42.680;23.252;2022-09-09T07:56:06;10.25;;;5.35;;
42864;SDS011;28511;42.680;23.252;2022-09-09T07:58:32;8.15;;;5.18;;
42864;SDS011;28511;42.680;23.252;2022-09-09T08:00:57;8.85;;;5.95;;
42864;SDS011;28511;42.680;23.252;2022-09-09T08:03:23;8.38;;;5.30;;
42864;SDS011;28511;42.680;23.252;2022-09-09T08:05:48;9.02;;;6.20;;
42864;SDS011;28511;42.680;23.252;2022-09-09T08:08:14;9.70;;;6.05;;
42864;SDS011;28511;42.680;23.252;2022-09-09T08:10:39;8.88;;;6.32;;
42864;SDS011;28511;42.680;23.252;2022-09-09T08:13:04;10.38;;;5.85;;
42864;SDS011;28511;42.680;23.252;2022-09-09T08:15:31;8.98;;;5.00;;
42864;SDS011;28511;42.680;23.252;2022-09-09T08:17:57;8.48;;;5.65;;
42864;SDS011;28511;42.680;23.252;2022-09-09T08:20:22;8.48;;;5.53;;
42864;SDS011;28511;42.680;23.252;2022-09-09T08:22:48;9.52;;;5.72;;
42864;SDS011;28511;42.680;23.252;2022-09-09T08:25:15;10.43;;;6.07;;
42864;SDS011;28511;42.680;23.252;2022-09-09T08:27:40;11.50;;;7.13;;
42864;SDS011;28511;42.680;23.252;2022-09-09T08:30:05;8.87;;;5.87;;
42864;SDS011;28511;42.680;23.252;2022-09-09T08:32:31;13.10;;;6.20;;
42864;SDS011;28511;42.680;23.252;2022-09-09T08:34:56;7.97;;;5.00;;
42864;SDS011;28511;42.680;23.252;2022-09-09T08:37:22;7.68;;;5.20;;
42864;SDS011;28511;42.680;23.252;2022-09-09T08:39:47;9.90;;;5.68;;
42864;SDS011;28511;42.680;23.252;2022-09-09T08:44:46;9.35;;;7.05;;
42864;SDS011;28511;42.680;23.252;2022-09-09T08:52:08;8.52;;;5.78;;
42864;SDS011;28511;42.680;23.252;2022-09-09T08:54:35;9.77;;;5.68;;
42864;SDS011;28511;42.680;23.252;2022-09-09T08:57:01;10.15;;;6.22;;
42864;SDS011;28511;42.680;23.252;2022-09-09T08:59:27;10.57;;;5.90;;
42864;SDS011;28511;42.680;23.252;2022-09-09T09:02:13;9.43;;;6.30;;
42864;SDS011;28511;42.680;23.252;2022-09-09T09:04:46;10.25;;;5.65;;
42864;SDS011;28511;42.680;23.252;2022-09-09T09:12:33;7.43;;;5.35;;
42864;SDS011;28511;42.680;23.252;2022-09-09T09:15:00;8.10;;;4.93;;
42864;SDS011;28511;42.680;23.252;2022-09-09T09:17:26;6.65;;;4.97;;
42864;SDS011;28511;42.680;23.252;2022-09-09T09:19:53;8.98;;;5.32;;
42864;SDS011;28511;42.680;23.252;2022-09-09T09:24:51;14.52;;;6.25;;
42864;SDS011;28511;42.680;23.252;2022-09-09T09:27:21;9.18;;;4.53;;
42864;SDS011;28511;42.680;23.252;2022-09-09T09:29:51;6.78;;;4.90;;
42864;SDS011;28511;42.680;23.252;2022-09-09T09:32:18;7.95;;;4.90;;
42864;SDS011;28511;42.680;23.252;2022-09-09T09:34:49;10.65;;;4.78;;
42864;SDS011;28511;42.680;23.252;2022-09-09T09:37:16;12.10;;;5.05;;
42864;SDS011;28511;42.680;23.252;2022-09-09T09:39:44;9.75;;;6.45;;
42864;SDS011;28511;42.680;23.252;2022-09-09T09:42:10;7.88;;;4.93;;
42864;SDS011;28511;42.680;23.252;2022-09-09T09:44:39;9.63;;;4.55;;
42864;SDS011;28511;42.680;23.252;2022-09-09T09:47:05;6.00;;;4.35;;
42864;SDS011;28511;42.680;23.252;2022-09-09T09:49:32;6.72;;;4.20;;
42864;SDS011;28511;42.680;23.252;2022-09-09T09:52:03;10.20;;;3.95;;
42864;SDS011;28511;42.680;23.252;2022-09-09T09:54:34;7.30;;;4.40;;
42864;SDS011;28511;42.680;23.252;2022-09-09T09:57:11;7.63;;;5.45;;
42864;SDS011;28511;42.680;23.252;2022-09-09T09:59:38;8.20;;;3.58;;
42864;SDS011;28511;42.680;23.252;2022-09-09T10:02:13;6.25;;;4.15;;
42864;SDS011;28511;42.680;23.252;2022-09-09T10:04:39;8.55;;;4.50;;
42864;SDS011;28511;42.680;23.252;2022-09-09T10:07:24;17.90;;;4.78;;
42864;SDS011;28511;42.680;23.252;2022-09-09T10:09:54;7.53;;;4.82;;
42864;SDS011;28511;42.680;23.252;2022-09-09T10:12:44;7.32;;;4.72;;
42864;SDS011;28511;42.680;23.252;2022-09-09T10:23:05;15.68;;;5.65;;
42864;SDS011;28511;42.680;23.252;2022-09-09T10:38:42;8.45;;;4.22;;
42864;SDS011;28511;42.680;23.252;2022-09-09T10:41:12;8.13;;;4.70;;
42864;SDS011;28511;42.680;23.252;2022-09-09T10:54:14;10.80;;;4.97;;
42864;SDS011;28511;42.680;23.252;2022-09-09T10:56:52;11.23;;;5.63;;
42864;SDS011;28511;42.680;23.252;2022-09-09T10:59:24;12.00;;;6.28;;
42864;SDS011;28511;42.680;23.252;2022-09-09T11:04:45;8.73;;;5.40;;
42864;SDS011;28511;42.680;23.252;2022-09-09T11:07:16;9.02;;;5.00;;
42864;SDS011;28511;42.680;23.252;2022-09-09T11:09:46;9.45;;;5.25;;
42864;SDS011;28511;42.680;23.252;2022-09-09T11:12:16;9.23;;;5.43;;
42864;SDS011;28511;42.680;23.252;2022-09-09T11:14:45;9.75;;;5.35;;
42864;SDS011;28511;42.680;23.252;2022-09-09T11:17:20;16.88;;;7.07;;
42864;SDS011;28511;42.680;23.252;2022-09-09T11:19:46;17.30;;;7.65;;
42864;SDS011;28511;42.680;23.252;2022-09-09T11:27:20;8.23;;;4.50;;
42864;SDS011;28511;42.680;23.252;2022-09-09T11:32:17;15.38;;;6.18;;
42864;SDS011;28511;42.680;23.252;2022-09-09T11:34:57;8.88;;;5.63;;
42864;SDS011;28511;42.680;23.252;2022-09-09T11:42:35;15.63;;;6.22;;
42864;SDS011;28511;42.680;23.252;2022-09-09T11:45:10;10.30;;;5.43;;
42864;SDS011;28511;42.680;23.252;2022-09-09T11:47:36;11.77;;;6.05;;
42864;SDS011;28511;42.680;23.252;2022-09-09T11:50:09;6.60;;;4.65;;
42864;SDS011;28511;42.680;23.252;2022-09-09T11:52:39;8.57;;;5.15;;
42864;SDS011;28511;42.680;23.252;2022-09-09T11:58:01;12.07;;;5.07;;
42864;SDS011;28511;42.680;23.252;2022-09-09T12:00:36;10.40;;;4.97;;
42864;SDS011;28511;42.680;23.252;2022-09-09T12:03:02;7.88;;;4.90;;
42864;SDS011;28511;42.680;23.252;2022-09-09T12:05:44;8.32;;;4.28;;
42864;SDS011;28511;42.680;23.252;2022-09-09T12:08:10;7.53;;;4.97;;
42864;SDS011;28511;42.680;23.252;2022-09-09T12:10:38;9.60;;;5.57;;
42864;SDS011;28511;42.680;23.252;2022-09-09T12:15:51;9.00;;;5.20;;
42864;SDS011;28511;42.680;23.252;2022-09-09T12:18:24;6.88;;;4.63;;
42864;SDS011;28511;42.680;23.252;2022-09-09T12:20:57;6.57;;;4.32;;
42864;SDS011;28511;42.680;23.252;2022-09-09T12:28:53;5.15;;;3.70;;
42864;SDS011;28511;42.680;23.252;2022-09-09T12:31:26;6.90;;;3.75;;
42864;SDS011;28511;42.680;23.252;2022-09-09T12:33:53;5.72;;;3.30;;
42864;SDS011;28511;42.680;23.252;2022-09-09T12:36:19;5.93;;;3.50;;
42864;SDS011;28511;42.680;23.252;2022-09-09T12:38:45;5.85;;;2.75;;
42864;SDS011;28511;42.680;23.252;2022-09-09T12:41:21;7.38;;;3.45;;
42864;SDS011;28511;42.680;23.252;2022-09-09T12:43:47;9.65;;;3.85;;
42864;SDS011;28511;42.680;23.252;2022-09-09T12:46:17;5.30;;;3.10;;
42864;SDS011;28511;42.680;23.252;2022-09-09T12:48:47;5.38;;;2.92;;
42864;SDS011;28511;42.680;23.252;2022-09-09T12:51:19;9.50;;;3.30;;
42864;SDS011;28511;42.680;23.252;2022-09-09T12:53:46;7.20;;;4.07;;
42864;SDS011;28511;42.680;23.252;2022-09-09T12:56:18;5.43;;;3.45;;
42864;SDS011;28511;42.680;23.252;2022-09-09T12:58:46;8.73;;;3.47;;
42864;SDS011;28511;42.680;23.252;2022-09-09T13:01:24;7.20;;;4.03;;
42864;SDS011;28511;42.680;23.252;2022-09-09T13:03:50;7.72;;;3.50;;
42864;SDS011;28511;42.680;23.252;2022-09-09T13:06:23;10.73;;;4.30;;
42864;SDS011;28511;42.680;23.252;2022-09-09T13:08:50;5.78;;;3.35;;
42864;SDS011;28511;42.680;23.252;2022-09-09T13:11:17;6.38;;;4.05;;
42864;SDS011;28511;42.680;23.252;2022-09-09T13:13:49;7.05;;;3.50;;
42864;SDS011;28511;42.680;23.252;2022-09-09T13:16:36;9.35;;;3.92;;
42864;SDS011;28511;42.680;23.252;2022-09-09T13:19:08;10.20;;;3.97;;
42864;SDS011;28511;42.680;23.252;2022-09-09T13:21:34;7.60;;;3.45;;
42864;SDS011;28511;42.680;23.252;2022-09-09T13:24:00;6.90;;;3.63;;
42864;SDS011;28511;42.680;23.252;2022-09-09T13:26:28;5.93;;;3.38;;
42864;SDS011;28511;42.680;23.252;2022-09-09T13:28:55;6.20;;;3.60;;
42864;SDS011;28511;42.680;23.252;2022-09-09T13:31:34;4.40;;;3.03;;
42864;SDS011;28511;42.680;23.252;2022-09-09T13:34:10;6.78;;;3.40;;
42864;SDS011;28511;42.680;23.252;2022-09-09T13:36:35;8.50;;;3.85;;
42864;SDS011;28511;42.680;23.252;2022-09-09T13:39:01;8.95;;;4.30;;
42864;SDS011;28511;42.680;23.252;2022-09-09T13:43:56;6.45;;;4.18;;
42864;SDS011;28511;42.680;23.252;2022-09-09T13:46:28;7.13;;;3.85;;
42864;SDS011;28511;42.680;23.252;2022-09-09T13:48:58;7.63;;;3.60;;
42864;SDS011;28511;42.680;23.252;2022-09-09T13:53:59;5.85;;;3.38;;
42864;SDS011;28511;42.680;23.252;2022-09-09T13:56:25;8.95;;;4.35;;
42864;SDS011;28511;42.680;23.252;2022-09-09T13:58:51;8.75;;;5.30;;
42864;SDS011;28511;42.680;23.252;2022-09-09T14:01:16;7.63;;;4.93;;
42864;SDS011;28511;42.680;23.252;2022-09-09T14:03:41;8.27;;;4.68;;
42864;SDS011;28511;42.680;23.252;2022-09-09T14:06:09;10.38;;;5.00;;
42864;SDS011;28511;42.680;23.252;2022-09-09T14:08:34;8.10;;;3.78;;
42864;SDS011;28511;42.680;23.252;2022-09-09T14:11:02;6.78;;;3.45;;
42864;SDS011;28511;42.680;23.252;2022-09-09T14:13:28;8.80;;;3.47;;
42864;SDS011;28511;42.680;23.252;2022-09-09T14:15:54;5.82;;;3.30;;
42864;SDS011;28511;42.680;23.252;2022-09-09T14:18:20;8.85;;;5.20;;
42864;SDS011;28511;42.680;23.252;2022-09-09T14:20:47;12.13;;;4.05;;
42864;SDS011;28511;42.680;23.252;2022-09-09T14:23:13;14.90;;;6.15;;
42864;SDS011;28511;42.680;23.252;2022-09-09T14:25:44;7.13;;;4.13;;
42864;SDS011;28511;42.680;23.252;2022-09-09T14:28:10;10.88;;;5.43;;
42864;SDS011;28511;42.680;23.252;2022-09-09T14:30:36;8.23;;;5.05;;
42864;SDS011;28511;42.680;23.252;2022-09-09T14:33:02;7.80;;;4.78;;
42864;SDS011;28511;42.680;23.252;2022-09-09T14:35:27;8.82;;;4.95;;
42864;SDS011;28511;42.680;23.252;2022-09-09T14:37:53;7.88;;;5.00;;
42864;SDS011;28511;42.680;23.252;2022-09-09T14:40:18;7.73;;;4.70;;
42864;SDS011;28511;42.680;23.252;2022-09-09T14:42:43;13.75;;;4.63;;
42864;SDS011;28511;42.680;23.252;2022-09-09T14:45:09;7.35;;;4.47;;
42864;SDS011;28511;42.680;23.252;2022-09-09T14:47:35;8.95;;;4.82;;
42864;SDS011;28511;42.680;23.252;2022-09-09T14:50:00;9.20;;;4.78;;
42864;SDS011;28511;42.680;23.252;2022-09-09T14:52:27;12.30;;;5.00;;
42864;SDS011;28511;42.680;23.252;2022-09-09T14:54:54;8.02;;;4.32;;
42864;SDS011;28511;42.680;23.252;2022-09-09T14:57:20;7.20;;;4.47;;
42864;SDS011;28511;42.680;23.252;2022-09-09T14:59:45;8.52;;;4.95;;
42864;SDS011;28511;42.680;23.252;2022-09-09T15:02:10;7.70;;;4.50;;
42864;SDS011;28511;42.680;23.252;2022-09-09T15:04:38;8.27;;;5.18;;
42864;SDS011;28511;42.680;23.252;2022-09-09T15:07:04;8.88;;;4.55;;
42864;SDS011;28511;42.680;23.252;2022-09-09T15:09:29;11.02;;;5.43;;
42864;SDS011;28511;42.680;23.252;2022-09-09T15:11:55;9.15;;;4.85;;
42864;SDS011;28511;42.680;23.252;2022-09-09T15:14:20;10.02;;;5.05;;
42864;SDS011;28511;42.680;23.252;2022-09-09T15:16:46;7.80;;;5.00;;
42864;SDS011;28511;42.680;23.252;2022-09-09T15:19:11;8.35;;;4.55;;
42864;SDS011;28511;42.680;23.252;2022-09-09T15:21:37;7.15;;;3.80;;
42864;SDS011;28511;42.680;23.252;2022-09-09T15:24:03;6.43;;;3.35;;
42864;SDS011;28511;42.680;23.252;2022-09-09T15:26:29;9.68;;;4.15;;
42864;SDS011;28511;42.680;23.252;2022-09-09T15:28:55;6.43;;;3.15;;
42864;SDS011;28511;42.680;23.252;2022-09-09T15:31:25;12.15;;;5.15;;
42864;SDS011;28511;42.680;23.252;2022-09-09T15:33:51;4.95;;;2.92;;
42864;SDS011;28511;42.680;23.252;2022-09-09T15:36:22;7.25;;;3.25;;
42864;SDS011;28511;42.680;23.252;2022-09-09T15:38:48;8.43;;;3.83;;
42864;SDS011;28511;42.680;23.252;2022-09-09T15:41:13;6.78;;;3.45;;
42864;SDS011;28511;42.680;23.252;2022-09-09T15:43:42;6.03;;;3.50;;
42864;SDS011;28511;42.680;23.252;2022-09-09T15:46:29;7.80;;;3.67;;
42864;SDS011;28511;42.680;23.252;2022-09-09T15:48:55;12.52;;;3.55;;
42864;SDS011;28511;42.680;23.252;2022-09-09T15:51:21;8.88;;;4.55;;
42864;SDS011;28511;42.680;23.252;2022-09-09T15:53:48;7.72;;;3.17;;
42864;SDS011;28511;42.680;23.252;2022-09-09T15:56:13;9.63;;;4.47;;
42864;SDS011;28511;42.680;23.252;2022-09-09T15:58:38;6.57;;;4.00;;
42864;SDS011;28511;42.680;23.252;2022-09-09T16:01:04;7.10;;;3.57;;
42864;SDS011;28511;42.680;23.252;2022-09-09T16:03:36;5.63;;;3.78;;
42864;SDS011;28511;42.680;23.252;2022-09-09T16:06:02;9.18;;;4.35;;
42864;SDS011;28511;42.680;23.252;2022-09-09T16:08:32;7.95;;;3.38;;
42864;SDS011;28511;42.680;23.252;2022-09-09T16:11:03;11.80;;;3.75;;
42864;SDS011;28511;42.680;23.252;2022-09-09T16:13:29;7.40;;;3.38;;
42864;SDS011;28511;42.680;23.252;2022-09-09T16:15:57;8.33;;;3.83;;
42864;SDS011;28511;42.680;23.252;2022-09-09T16:18:23;8.98;;;4.28;;
42864;SDS011;28511;42.680;23.252;2022-09-09T16:20:54;6.78;;;4.57;;
42864;SDS011;28511;42.680;23.252;2022-09-09T16:23:20;9.35;;;4.15;;
42864;SDS011;28511;42.680;23.252;2022-09-09T16:25:52;12.82;;;5.10;;
42864;SDS011;28511;42.680;23.252;2022-09-09T16:28:18;11.65;;;4.30;;
42864;SDS011;28511;42.680;23.252;2022-09-09T16:30:43;13.77;;;4.47;;
42864;SDS011;28511;42.680;23.252;2022-09-09T16:33:08;9.00;;;4.72;;
42864;SDS011;28511;42.680;23.252;2022-09-09T16:35:36;8.50;;;4.10;;